sensor_id;sensor_type;location;lat;lon;timestamp;P1;durP1;ratioP1;P2;durP2;ratioP2
56307;SDS011;42217;50.422;7.210;2022-08-04T00:01:11;2.90;;;1.50;;
56307;SDS011;42217;50.422;7.210;2022-08-04T00:03:54;3.50;;;1.58;;
56307;SDS011;42217;50.422;7.210;2022-08-04T00:06:33;1.58;;;1.27;;
56307;SDS011;42217;50.422;7.210;2022-08-04T00:09:15;2.22;;;1.30;;
56307;SDS011;42217;50.422;7.210;2022-08-04T00:11:47;10.88;;;1.65;;
56307;SDS011;42217;50.422;7.210;2022-08-04T00:14:14;3.75;;;1.90;;
56307;SDS011;42217;50.422;7.210;2022-08-04T00:16:41;2.55;;;1.55;;
56307;SDS011;42217;50.422;7.210;2022-08-04T00:19:52;5.07;;;2.03;;
56307;SDS011;42217;50.422;7.210;2022-08-04T00:22:05;2.78;;;1.33;;
56307;SDS011;42217;50.422;7.210;2022-08-04T00:24:33;5.88;;;1.92;;
56307;SDS011;42217;50.422;7.210;2022-08-04T00:27:00;2.90;;;1.58;;
56307;SDS011;42217;50.422;7.210;2022-08-04T00:29:26;5.43;;;1.38;;
56307;SDS011;42217;50.422;7.210;2022-08-04T00:31:53;4.13;;;1.50;;
56307;SDS011;42217;50.422;7.210;2022-08-04T00:34:21;4.50;;;1.50;;
56307;SDS011;42217;50.422;7.210;2022-08-04T00:36:48;3.47;;;1.33;;
56307;SDS011;42217;50.422;7.210;2022-08-04T00:39:15;4.80;;;1.55;;
56307;SDS011;42217;50.422;7.210;2022-08-04T00:42:29;2.92;;;1.98;;
56307;SDS011;42217;50.422;7.210;2022-08-04T00:55:03;5.85;;;1.80;;
56307;SDS011;42217;50.422;7.210;2022-08-04T00:57:58;2.20;;;1.88;;
56307;SDS011;42217;50.422;7.210;2022-08-04T01:00:27;2.10;;;1.67;;
56307;SDS011;42217;50.422;7.210;2022-08-04T01:03:17;3.42;;;1.80;;
56307;SDS011;42217;50.422;7.210;2022-08-04T01:06:08;4.18;;;2.15;;
56307;SDS011;42217;50.422;7.210;2022-08-04T01:08:48;3.03;;;1.58;;
56307;SDS011;42217;50.422;7.210;2022-08-04T01:17:23;3.30;;;1.73;;
56307;SDS011;42217;50.422;7.210;2022-08-04T01:20:08;2.03;;;1.65;;
56307;SDS011;42217;50.422;7.210;2022-08-04T01:31:25;5.53;;;1.88;;
56307;SDS011;42217;50.422;7.210;2022-08-04T01:34:19;6.47;;;1.65;;
56307;SDS011;42217;50.422;7.210;2022-08-04T01:36:48;1.90;;;1.70;;
56307;SDS011;42217;50.422;7.210;2022-08-04T01:39:30;2.05;;;1.85;;
56307;SDS011;42217;50.422;7.210;2022-08-04T01:42:05;2.65;;;1.70;;
56307;SDS011;42217;50.422;7.210;2022-08-04T01:44:31;2.92;;;1.80;;
56307;SDS011;42217;50.422;7.210;2022-08-04T01:46:59;3.17;;;2.20;;
56307;SDS011;42217;50.422;7.210;2022-08-04T01:49:30;2.38;;;1.92;;
56307;SDS011;42217;50.422;7.210;2022-08-04T01:51:56;2.38;;;1.50;;
56307;SDS011;42217;50.422;7.210;2022-08-04T01:54:25;4.50;;;1.80;;
56307;SDS011;42217;50.422;7.210;2022-08-04T01:56:52;3.50;;;1.90;;
56307;SDS011;42217;50.422;7.210;2022-08-04T01:59:19;4.60;;;1.65;;
56307;SDS011;42217;50.422;7.210;2022-08-04T02:01:46;1.80;;;1.70;;
56307;SDS011;42217;50.422;7.210;2022-08-04T02:04:13;2.15;;;1.95;;
56307;SDS011;42217;50.422;7.210;2022-08-04T02:07:01;3.55;;;2.13;;
56307;SDS011;42217;50.422;7.210;2022-08-04T02:12:23;3.03;;;2.72;;
56307;SDS011;42217;50.422;7.210;2022-08-04T02:14:58;3.33;;;2.15;;
56307;SDS011;42217;50.422;7.210;2022-08-04T02:17:34;4.05;;;1.42;;
56307;SDS011;42217;50.422;7.210;2022-08-04T02:20:11;1.90;;;1.70;;
56307;SDS011;42217;50.422;7.210;2022-08-04T02:22:46;3.58;;;1.88;;
56307;SDS011;42217;50.422;7.210;2022-08-04T02:25:23;1.85;;;1.73;;
56307;SDS011;42217;50.422;7.210;2022-08-04T02:30:15;2.67;;;1.55;;
56307;SDS011;42217;50.422;7.210;2022-08-04T02:32:43;2.75;;;1.60;;
56307;SDS011;42217;50.422;7.210;2022-08-04T02:35:12;2.45;;;2.25;;
56307;SDS011;42217;50.422;7.210;2022-08-04T02:37:45;6.13;;;3.13;;
56307;SDS011;42217;50.422;7.210;2022-08-04T02:40:12;2.50;;;1.90;;
56307;SDS011;42217;50.422;7.210;2022-08-04T02:42:45;4.53;;;1.73;;
56307;SDS011;42217;50.422;7.210;2022-08-04T02:45:11;2.63;;;2.10;;
56307;SDS011;42217;50.422;7.210;2022-08-04T02:47:36;2.83;;;2.60;;
56307;SDS011;42217;50.422;7.210;2022-08-04T02:50:03;3.20;;;2.45;;
56307;SDS011;42217;50.422;7.210;2022-08-04T02:52:31;2.83;;;2.53;;
56307;SDS011;42217;50.422;7.210;2022-08-04T02:54:59;4.82;;;2.20;;
56307;SDS011;42217;50.422;7.210;2022-08-04T02:57:28;6.93;;;2.75;;
56307;SDS011;42217;50.422;7.210;2022-08-04T03:16:58;2.47;;;1.80;;
56307;SDS011;42217;50.422;7.210;2022-08-04T03:22:22;2.83;;;2.20;;
56307;SDS011;42217;50.422;7.210;2022-08-04T03:27:35;2.42;;;2.10;;
56307;SDS011;42217;50.422;7.210;2022-08-04T03:30:29;3.33;;;1.88;;
56307;SDS011;42217;50.422;7.210;2022-08-04T03:44:34;4.18;;;1.85;;
56307;SDS011;42217;50.422;7.210;2022-08-04T03:50:06;2.90;;;1.65;;
56307;SDS011;42217;50.422;7.210;2022-08-04T04:23:57;4.97;;;1.70;;
56307;SDS011;42217;50.422;7.210;2022-08-04T04:26:44;3.03;;;2.08;;
56307;SDS011;42217;50.422;7.210;2022-08-04T04:31:55;9.60;;;2.47;;
56307;SDS011;42217;50.422;7.210;2022-08-04T04:59:25;1.55;;;1.40;;
56307;SDS011;42217;50.422;7.210;2022-08-04T05:02:15;3.60;;;1.50;;
56307;SDS011;42217;50.422;7.210;2022-08-04T05:11:03;2.08;;;1.42;;
56307;SDS011;42217;50.422;7.210;2022-08-04T05:13:51;1.50;;;1.40;;
56307;SDS011;42217;50.422;7.210;2022-08-04T05:16:34;1.95;;;1.50;;
56307;SDS011;42217;50.422;7.210;2022-08-04T05:21:48;4.13;;;1.95;;
56307;SDS011;42217;50.422;7.210;2022-08-04T05:24:24;12.85;;;3.67;;
56307;SDS011;42217;50.422;7.210;2022-08-04T05:27:04;15.45;;;3.42;;
56307;SDS011;42217;50.422;7.210;2022-08-04T05:29:41;11.93;;;2.78;;
56307;SDS011;42217;50.422;7.210;2022-08-04T05:32:17;5.35;;;2.25;;
56307;SDS011;42217;50.422;7.210;2022-08-04T05:34:51;10.55;;;2.25;;
56307;SDS011;42217;50.422;7.210;2022-08-04T05:37:24;9.25;;;1.88;;
56307;SDS011;42217;50.422;7.210;2022-08-04T05:39:53;12.35;;;2.38;;
56307;SDS011;42217;50.422;7.210;2022-08-04T05:42:22;13.20;;;2.83;;
56307;SDS011;42217;50.422;7.210;2022-08-04T05:44:50;9.38;;;2.58;;
56307;SDS011;42217;50.422;7.210;2022-08-04T05:47:16;21.50;;;3.50;;
56307;SDS011;42217;50.422;7.210;2022-08-04T05:49:45;10.65;;;3.13;;
56307;SDS011;42217;50.422;7.210;2022-08-04T05:52:11;19.38;;;2.17;;
56307;SDS011;42217;50.422;7.210;2022-08-04T05:54:39;10.68;;;3.17;;
56307;SDS011;42217;50.422;7.210;2022-08-04T05:57:06;19.23;;;2.72;;
56307;SDS011;42217;50.422;7.210;2022-08-04T05:59:35;16.27;;;3.95;;
56307;SDS011;42217;50.422;7.210;2022-08-04T06:02:04;11.68;;;2.70;;
56307;SDS011;42217;50.422;7.210;2022-08-04T06:07:01;9.65;;;2.05;;
56307;SDS011;42217;50.422;7.210;2022-08-04T06:09:27;5.20;;;1.50;;
56307;SDS011;42217;50.422;7.210;2022-08-04T06:11:53;10.63;;;2.35;;
56307;SDS011;42217;50.422;7.210;2022-08-04T06:14:24;4.32;;;1.63;;
56307;SDS011;42217;50.422;7.210;2022-08-04T06:16:51;3.38;;;1.30;;
56307;SDS011;42217;50.422;7.210;2022-08-04T06:19:19;1.65;;;1.23;;
56307;SDS011;42217;50.422;7.210;2022-08-04T06:21:50;5.00;;;1.42;;
56307;SDS011;42217;50.422;7.210;2022-08-04T06:24:19;1.30;;;1.10;;
56307;SDS011;42217;50.422;7.210;2022-08-04T06:26:49;1.45;;;1.08;;
56307;SDS011;42217;50.422;7.210;2022-08-04T06:29:16;1.30;;;1.05;;
56307;SDS011;42217;50.422;7.210;2022-08-04T06:31:52;2.83;;;1.40;;
56307;SDS011;42217;50.422;7.210;2022-08-04T06:34:26;1.52;;;1.10;;
56307;SDS011;42217;50.422;7.210;2022-08-04T06:36:54;1.67;;;1.25;;
56307;SDS011;42217;50.422;7.210;2022-08-04T06:39:21;4.55;;;1.10;;
56307;SDS011;42217;50.422;7.210;2022-08-04T06:41:51;1.55;;;1.30;;
56307;SDS011;42217;50.422;7.210;2022-08-04T06:44:18;3.40;;;0.73;;
56307;SDS011;42217;50.422;7.210;2022-08-04T06:46:45;2.67;;;1.10;;
56307;SDS011;42217;50.422;7.210;2022-08-04T06:49:12;5.88;;;1.70;;
56307;SDS011;42217;50.422;7.210;2022-08-04T06:51:38;2.97;;;1.05;;
56307;SDS011;42217;50.422;7.210;2022-08-04T06:54:06;9.60;;;2.08;;
56307;SDS011;42217;50.422;7.210;2022-08-04T06:56:32;4.30;;;1.30;;
56307;SDS011;42217;50.422;7.210;2022-08-04T06:58:59;1.58;;;1.02;;
56307;SDS011;42217;50.422;7.210;2022-08-04T07:01:28;4.68;;;1.50;;
56307;SDS011;42217;50.422;7.210;2022-08-04T07:03:55;2.28;;;1.10;;
56307;SDS011;42217;50.422;7.210;2022-08-04T07:06:21;1.42;;;0.98;;
56307;SDS011;42217;50.422;7.210;2022-08-04T07:08:49;3.22;;;1.45;;
56307;SDS011;42217;50.422;7.210;2022-08-04T07:11:16;4.03;;;1.00;;
56307;SDS011;42217;50.422;7.210;2022-08-04T07:13:43;9.32;;;1.30;;
56307;SDS011;42217;50.422;7.210;2022-08-04T07:16:12;2.78;;;0.68;;
56307;SDS011;42217;50.422;7.210;2022-08-04T07:18:39;4.50;;;1.00;;
56307;SDS011;42217;50.422;7.210;2022-08-04T07:21:05;2.30;;;1.05;;
56307;SDS011;42217;50.422;7.210;2022-08-04T07:23:31;2.53;;;0.98;;
56307;SDS011;42217;50.422;7.210;2022-08-04T07:25:57;2.67;;;1.00;;
56307;SDS011;42217;50.422;7.210;2022-08-04T07:28:24;5.32;;;1.10;;
56307;SDS011;42217;50.422;7.210;2022-08-04T07:30:52;1.35;;;1.13;;
56307;SDS011;42217;50.422;7.210;2022-08-04T07:33:19;2.55;;;1.02;;
56307;SDS011;42217;50.422;7.210;2022-08-04T07:35:47;5.80;;;0.80;;
56307;SDS011;42217;50.422;7.210;2022-08-04T07:38:23;4.13;;;0.80;;
56307;SDS011;42217;50.422;7.210;2022-08-04T07:40:48;1.85;;;1.20;;
56307;SDS011;42217;50.422;7.210;2022-08-04T07:43:15;3.45;;;1.00;;
56307;SDS011;42217;50.422;7.210;2022-08-04T07:45:41;1.05;;;0.85;;
56307;SDS011;42217;50.422;7.210;2022-08-04T07:48:08;6.78;;;1.13;;
56307;SDS011;42217;50.422;7.210;2022-08-04T07:50:34;1.20;;;1.00;;
56307;SDS011;42217;50.422;7.210;2022-08-04T07:53:02;2.17;;;1.15;;
56307;SDS011;42217;50.422;7.210;2022-08-04T07:55:28;2.15;;;1.00;;
56307;SDS011;42217;50.422;7.210;2022-08-04T07:57:55;1.92;;;0.93;;
56307;SDS011;42217;50.422;7.210;2022-08-04T08:00:21;1.15;;;0.95;;
56307;SDS011;42217;50.422;7.210;2022-08-04T08:02:49;6.20;;;1.15;;
56307;SDS011;42217;50.422;7.210;2022-08-04T08:05:18;3.03;;;1.55;;
56307;SDS011;42217;50.422;7.210;2022-08-04T08:07:48;3.13;;;0.98;;
56307;SDS011;42217;50.422;7.210;2022-08-04T08:10:15;2.63;;;1.00;;
56307;SDS011;42217;50.422;7.210;2022-08-04T08:12:41;1.83;;;1.05;;
56307;SDS011;42217;50.422;7.210;2022-08-04T08:15:08;7.35;;;0.90;;
56307;SDS011;42217;50.422;7.210;2022-08-04T08:17:36;1.45;;;0.85;;
56307;SDS011;42217;50.422;7.210;2022-08-04T08:20:07;1.10;;;0.80;;
56307;SDS011;42217;50.422;7.210;2022-08-04T08:22:34;0.85;;;0.75;;
56307;SDS011;42217;50.422;7.210;2022-08-04T08:25:01;2.50;;;0.95;;
56307;SDS011;42217;50.422;7.210;2022-08-04T08:27:29;2.42;;;0.90;;
56307;SDS011;42217;50.422;7.210;2022-08-04T08:29:55;3.50;;;1.60;;
56307;SDS011;42217;50.422;7.210;2022-08-04T08:32:21;0.95;;;0.82;;
56307;SDS011;42217;50.422;7.210;2022-08-04T08:34:47;2.38;;;0.75;;
56307;SDS011;42217;50.422;7.210;2022-08-04T08:48:36;1.67;;;0.90;;
56307;SDS011;42217;50.422;7.210;2022-08-04T09:05:17;3.55;;;1.08;;
56307;SDS011;42217;50.422;7.210;2022-08-04T09:10:44;13.27;;;1.63;;
56307;SDS011;42217;50.422;7.210;2022-08-04T09:21:52;5.80;;;1.38;;
56307;SDS011;42217;50.422;7.210;2022-08-04T09:24:40;10.25;;;1.38;;
56307;SDS011;42217;50.422;7.210;2022-08-04T09:38:26;16.20;;;2.22;;
56307;SDS011;42217;50.422;7.210;2022-08-04T09:43:53;2.58;;;1.05;;
56307;SDS011;42217;50.422;7.210;2022-08-04T09:46:42;4.88;;;1.40;;
56307;SDS011;42217;50.422;7.210;2022-08-04T09:49:24;9.05;;;1.27;;
56307;SDS011;42217;50.422;7.210;2022-08-04T09:52:10;14.57;;;2.05;;
56307;SDS011;42217;50.422;7.210;2022-08-04T09:58:10;12.82;;;2.05;;
56307;SDS011;42217;50.422;7.210;2022-08-04T10:00:50;7.47;;;1.63;;
56307;SDS011;42217;50.422;7.210;2022-08-04T10:03:25;0.75;;;0.45;;
56307;SDS011;42217;50.422;7.210;2022-08-04T10:17:37;2.13;;;0.30;;
56307;SDS011;42217;50.422;7.210;2022-08-04T10:20:15;7.05;;;1.70;;
56307;SDS011;42217;50.422;7.210;2022-08-04T10:23:11;4.65;;;0.68;;
56307;SDS011;42217;50.422;7.210;2022-08-04T10:25:41;3.22;;;0.40;;
56307;SDS011;42217;50.422;7.210;2022-08-04T10:28:22;2.63;;;1.40;;
56307;SDS011;42217;50.422;7.210;2022-08-04T10:30:51;3.83;;;0.52;;
56307;SDS011;42217;50.422;7.210;2022-08-04T10:33:26;1.63;;;0.60;;
56307;SDS011;42217;50.422;7.210;2022-08-04T10:36:11;0.98;;;0.28;;
56307;SDS011;42217;50.422;7.210;2022-08-04T10:47:00;2.30;;;0.52;;
56307;SDS011;42217;50.422;7.210;2022-08-04T10:49:33;0.40;;;0.30;;
56307;SDS011;42217;50.422;7.210;2022-08-04T10:52:18;2.28;;;0.50;;
56307;SDS011;42217;50.422;7.210;2022-08-04T10:54:59;1.65;;;0.60;;
56307;SDS011;42217;50.422;7.210;2022-08-04T10:57:44;6.13;;;0.68;;
56307;SDS011;42217;50.422;7.210;2022-08-04T11:00:24;2.58;;;0.50;;
56307;SDS011;42217;50.422;7.210;2022-08-04T11:02:55;2.42;;;0.40;;
56307;SDS011;42217;50.422;7.210;2022-08-04T11:08:31;2.08;;;0.20;;
56307;SDS011;42217;50.422;7.210;2022-08-04T11:13:37;1.40;;;0.22;;
56307;SDS011;42217;50.422;7.210;2022-08-04T11:16:24;0.85;;;0.28;;
56307;SDS011;42217;50.422;7.210;2022-08-04T11:21:32;3.65;;;0.22;;
56307;SDS011;42217;50.422;7.210;2022-08-04T11:27:18;1.63;;;0.45;;
56307;SDS011;42217;50.422;7.210;2022-08-04T11:29:55;0.77;;;0.30;;
56307;SDS011;42217;50.422;7.210;2022-08-04T11:32:36;4.57;;;0.30;;
56307;SDS011;42217;50.422;7.210;2022-08-04T11:35:06;1.58;;;0.20;;
56307;SDS011;42217;50.422;7.210;2022-08-04T11:40:46;1.08;;;0.40;;
56307;SDS011;42217;50.422;7.210;2022-08-04T11:43:18;0.40;;;0.32;;
56307;SDS011;42217;50.422;7.210;2022-08-04T11:45:54;2.15;;;0.75;;
56307;SDS011;42217;50.422;7.210;2022-08-04T11:48:28;1.00;;;0.40;;
56307;SDS011;42217;50.422;7.210;2022-08-04T11:51:01;1.38;;;0.50;;
56307;SDS011;42217;50.422;7.210;2022-08-04T11:53:29;3.80;;;0.43;;
56307;SDS011;42217;50.422;7.210;2022-08-04T11:56:02;2.38;;;0.43;;
56307;SDS011;42217;50.422;7.210;2022-08-04T11:58:30;0.70;;;0.28;;
56307;SDS011;42217;50.422;7.210;2022-08-04T12:01:05;1.60;;;0.52;;
56307;SDS011;42217;50.422;7.210;2022-08-04T12:06:32;2.45;;;0.50;;
56307;SDS011;42217;50.422;7.210;2022-08-04T12:17:19;2.33;;;0.60;;
56307;SDS011;42217;50.422;7.210;2022-08-04T12:19:50;1.42;;;0.20;;
56307;SDS011;42217;50.422;7.210;2022-08-04T12:22:21;1.88;;;1.05;;
56307;SDS011;42217;50.422;7.210;2022-08-04T12:27:50;0.95;;;0.50;;
56307;SDS011;42217;50.422;7.210;2022-08-04T12:30:19;2.35;;;0.50;;
56307;SDS011;42217;50.422;7.210;2022-08-04T12:35:47;1.10;;;0.40;;
56307;SDS011;42217;50.422;7.210;2022-08-04T12:38:20;0.73;;;0.40;;
56307;SDS011;42217;50.422;7.210;2022-08-04T12:40:49;2.45;;;0.50;;
56307;SDS011;42217;50.422;7.210;2022-08-04T12:43:50;2.40;;;0.45;;
56307;SDS011;42217;50.422;7.210;2022-08-04T12:46:16;5.07;;;1.00;;
56307;SDS011;42217;50.422;7.210;2022-08-04T12:48:47;0.88;;;0.38;;
56307;SDS011;42217;50.422;7.210;2022-08-04T12:51:14;1.55;;;0.40;;
56307;SDS011;42217;50.422;7.210;2022-08-04T12:53:42;0.93;;;0.68;;
56307;SDS011;42217;50.422;7.210;2022-08-04T12:56:09;6.78;;;0.40;;
56307;SDS011;42217;50.422;7.210;2022-08-04T12:58:41;0.95;;;0.40;;
56307;SDS011;42217;50.422;7.210;2022-08-04T13:01:09;0.40;;;0.30;;
56307;SDS011;42217;50.422;7.210;2022-08-04T13:03:37;2.70;;;0.35;;
56307;SDS011;42217;50.422;7.210;2022-08-04T13:06:06;3.15;;;0.38;;
56307;SDS011;42217;50.422;7.210;2022-08-04T13:08:35;1.63;;;0.57;;
56307;SDS011;42217;50.422;7.210;2022-08-04T13:11:03;1.23;;;0.50;;
56307;SDS011;42217;50.422;7.210;2022-08-04T13:13:30;0.52;;;0.35;;
56307;SDS011;42217;50.422;7.210;2022-08-04T13:16:09;1.15;;;0.50;;
56307;SDS011;42217;50.422;7.210;2022-08-04T13:18:37;2.33;;;0.60;;
56307;SDS011;42217;50.422;7.210;2022-08-04T13:21:08;4.60;;;0.73;;
56307;SDS011;42217;50.422;7.210;2022-08-04T13:23:38;4.38;;;0.70;;
56307;SDS011;42217;50.422;7.210;2022-08-04T13:26:05;5.55;;;1.08;;
56307;SDS011;42217;50.422;7.210;2022-08-04T13:28:32;11.30;;;0.70;;
56307;SDS011;42217;50.422;7.210;2022-08-04T13:30:59;2.72;;;0.57;;
56307;SDS011;42217;50.422;7.210;2022-08-04T13:33:30;7.82;;;0.80;;
56307;SDS011;42217;50.422;7.210;2022-08-04T13:36:00;4.15;;;0.82;;
56307;SDS011;42217;50.422;7.210;2022-08-04T13:38:27;2.70;;;0.80;;
56307;SDS011;42217;50.422;7.210;2022-08-04T13:40:55;3.70;;;0.70;;
56307;SDS011;42217;50.422;7.210;2022-08-04T13:43:24;4.90;;;0.60;;
56307;SDS011;42217;50.422;7.210;2022-08-04T13:46:03;7.18;;;0.95;;
56307;SDS011;42217;50.422;7.210;2022-08-04T13:48:31;5.93;;;1.20;;
56307;SDS011;42217;50.422;7.210;2022-08-04T13:51:00;3.67;;;0.80;;
56307;SDS011;42217;50.422;7.210;2022-08-04T13:53:32;10.50;;;1.43;;
56307;SDS011;42217;50.422;7.210;2022-08-04T13:55:59;4.82;;;0.85;;
56307;SDS011;42217;50.422;7.210;2022-08-04T13:58:31;6.30;;;0.90;;
56307;SDS011;42217;50.422;7.210;2022-08-04T14:01:00;3.45;;;0.95;;
56307;SDS011;42217;50.422;7.210;2022-08-04T14:03:37;8.50;;;0.90;;
56307;SDS011;42217;50.422;7.210;2022-08-04T14:06:06;13.18;;;0.88;;
56307;SDS011;42217;50.422;7.210;2022-08-04T14:08:54;4.45;;;1.17;;
56307;SDS011;42217;50.422;7.210;2022-08-04T14:11:29;5.50;;;1.65;;
56307;SDS011;42217;50.422;7.210;2022-08-04T14:13:59;5.68;;;0.95;;
56307;SDS011;42217;50.422;7.210;2022-08-04T14:16:26;8.00;;;0.90;;
56307;SDS011;42217;50.422;7.210;2022-08-04T14:18:59;12.07;;;0.98;;
56307;SDS011;42217;50.422;7.210;2022-08-04T14:21:25;6.38;;;0.90;;
56307;SDS011;42217;50.422;7.210;2022-08-04T14:23:53;10.40;;;0.80;;
56307;SDS011;42217;50.422;7.210;2022-08-04T14:28:50;8.82;;;1.10;;
56307;SDS011;42217;50.422;7.210;2022-08-04T14:31:18;6.50;;;1.15;;
56307;SDS011;42217;50.422;7.210;2022-08-04T14:33:47;4.57;;;0.90;;
56307;SDS011;42217;50.422;7.210;2022-08-04T14:36:14;6.80;;;0.82;;
56307;SDS011;42217;50.422;7.210;2022-08-04T14:38:48;5.20;;;0.93;;
56307;SDS011;42217;50.422;7.210;2022-08-04T14:41:24;5.65;;;1.17;;
56307;SDS011;42217;50.422;7.210;2022-08-04T14:43:53;8.65;;;1.10;;
56307;SDS011;42217;50.422;7.210;2022-08-04T14:46:21;12.65;;;2.15;;
56307;SDS011;42217;50.422;7.210;2022-08-04T14:51:36;10.95;;;0.95;;
56307;SDS011;42217;50.422;7.210;2022-08-04T14:54:07;7.70;;;1.05;;
56307;SDS011;42217;50.422;7.210;2022-08-04T14:56:34;7.53;;;1.05;;
56307;SDS011;42217;50.422;7.210;2022-08-04T14:59:02;10.82;;;2.03;;
56307;SDS011;42217;50.422;7.210;2022-08-04T15:01:35;11.07;;;0.98;;
56307;SDS011;42217;50.422;7.210;2022-08-04T15:04:03;9.68;;;0.90;;
56307;SDS011;42217;50.422;7.210;2022-08-04T15:06:30;8.65;;;1.52;;
56307;SDS011;42217;50.422;7.210;2022-08-04T15:08:58;11.65;;;1.17;;
56307;SDS011;42217;50.422;7.210;2022-08-04T15:11:26;5.82;;;1.35;;
56307;SDS011;42217;50.422;7.210;2022-08-04T15:13:53;8.80;;;1.10;;
56307;SDS011;42217;50.422;7.210;2022-08-04T15:16:21;4.90;;;0.75;;
56307;SDS011;42217;50.422;7.210;2022-08-04T15:18:49;5.97;;;1.33;;
56307;SDS011;42217;50.422;7.210;2022-08-04T15:21:16;12.15;;;1.08;;
56307;SDS011;42217;50.422;7.210;2022-08-04T15:23:42;3.88;;;0.85;;
56307;SDS011;42217;50.422;7.210;2022-08-04T15:26:11;4.18;;;0.60;;
56307;SDS011;42217;50.422;7.210;2022-08-04T15:28:43;9.20;;;1.88;;
56307;SDS011;42217;50.422;7.210;2022-08-04T15:31:12;7.60;;;1.00;;
56307;SDS011;42217;50.422;7.210;2022-08-04T15:33:39;7.25;;;1.88;;
56307;SDS011;42217;50.422;7.210;2022-08-04T15:36:12;3.33;;;0.80;;
56307;SDS011;42217;50.422;7.210;2022-08-04T15:47:15;4.03;;;0.68;;
56307;SDS011;42217;50.422;7.210;2022-08-04T15:49:42;6.95;;;0.95;;
56307;SDS011;42217;50.422;7.210;2022-08-04T15:52:12;2.25;;;0.50;;
56307;SDS011;42217;50.422;7.210;2022-08-04T15:54:41;9.32;;;1.45;;
56307;SDS011;42217;50.422;7.210;2022-08-04T15:57:07;7.57;;;1.25;;
56307;SDS011;42217;50.422;7.210;2022-08-04T16:02:27;2.78;;;1.02;;
56307;SDS011;42217;50.422;7.210;2022-08-04T16:05:27;9.82;;;1.27;;
56307;SDS011;42217;50.422;7.210;2022-08-04T16:07:57;4.72;;;0.88;;
56307;SDS011;42217;50.422;7.210;2022-08-04T16:13:08;2.63;;;0.90;;
56307;SDS011;42217;50.422;7.210;2022-08-04T16:18:08;5.05;;;1.30;;
56307;SDS011;42217;50.422;7.210;2022-08-04T16:20:35;3.72;;;0.90;;
56307;SDS011;42217;50.422;7.210;2022-08-04T16:23:06;9.82;;;1.00;;
56307;SDS011;42217;50.422;7.210;2022-08-04T16:25:45;3.00;;;1.00;;
56307;SDS011;42217;50.422;7.210;2022-08-04T16:31:00;4.35;;;1.15;;
56307;SDS011;42217;50.422;7.210;2022-08-04T16:33:28;5.85;;;1.08;;
56307;SDS011;42217;50.422;7.210;2022-08-04T16:35:55;2.88;;;1.05;;
56307;SDS011;42217;50.422;7.210;2022-08-04T16:38:22;7.13;;;1.52;;
56307;SDS011;42217;50.422;7.210;2022-08-04T16:40:58;8.10;;;0.90;;
56307;SDS011;42217;50.422;7.210;2022-08-04T16:43:28;4.75;;;1.52;;
56307;SDS011;42217;50.422;7.210;2022-08-04T16:48:29;4.63;;;0.85;;
56307;SDS011;42217;50.422;7.210;2022-08-04T16:51:03;11.52;;;1.52;;
56307;SDS011;42217;50.422;7.210;2022-08-04T16:53:40;5.75;;;1.25;;
56307;SDS011;42217;50.422;7.210;2022-08-04T16:56:08;8.25;;;1.50;;
56307;SDS011;42217;50.422;7.210;2022-08-04T16:58:35;10.88;;;1.13;;
56307;SDS011;42217;50.422;7.210;2022-08-04T17:01:11;10.00;;;1.48;;
56307;SDS011;42217;50.422;7.210;2022-08-04T17:03:40;6.55;;;1.33;;
56307;SDS011;42217;50.422;7.210;2022-08-04T17:06:14;2.88;;;1.00;;
56307;SDS011;42217;50.422;7.210;2022-08-04T17:08:41;10.07;;;1.98;;
56307;SDS011;42217;50.422;7.210;2022-08-04T17:11:08;6.25;;;1.15;;
56307;SDS011;42217;50.422;7.210;2022-08-04T17:13:36;6.03;;;1.63;;
56307;SDS011;42217;50.422;7.210;2022-08-04T17:16:07;9.05;;;2.47;;
56307;SDS011;42217;50.422;7.210;2022-08-04T17:18:35;6.22;;;2.20;;
56307;SDS011;42217;50.422;7.210;2022-08-04T17:21:07;5.45;;;1.30;;
56307;SDS011;42217;50.422;7.210;2022-08-04T17:23:39;5.03;;;1.38;;
56307;SDS011;42217;50.422;7.210;2022-08-04T17:26:07;2.85;;;1.75;;
56307;SDS011;42217;50.422;7.210;2022-08-04T17:28:41;6.57;;;1.45;;
56307;SDS011;42217;50.422;7.210;2022-08-04T17:31:09;2.33;;;1.23;;
56307;SDS011;42217;50.422;7.210;2022-08-04T17:33:36;10.15;;;1.80;;
56307;SDS011;42217;50.422;7.210;2022-08-04T17:36:04;6.90;;;1.38;;
56307;SDS011;42217;50.422;7.210;2022-08-04T17:38:39;3.97;;;1.40;;
56307;SDS011;42217;50.422;7.210;2022-08-04T17:41:08;3.97;;;1.10;;
56307;SDS011;42217;50.422;7.210;2022-08-04T17:48:43;5.55;;;1.63;;
56307;SDS011;42217;50.422;7.210;2022-08-04T17:51:16;2.28;;;1.10;;
56307;SDS011;42217;50.422;7.210;2022-08-04T17:53:42;1.98;;;1.30;;
56307;SDS011;42217;50.422;7.210;2022-08-04T18:04:27;4.95;;;1.75;;
56307;SDS011;42217;50.422;7.210;2022-08-04T18:09:55;3.13;;;1.58;;
56307;SDS011;42217;50.422;7.210;2022-08-04T18:12:26;5.53;;;1.75;;
56307;SDS011;42217;50.422;7.210;2022-08-04T18:14:57;2.75;;;1.55;;
56307;SDS011;42217;50.422;7.210;2022-08-04T18:20:02;4.50;;;2.08;;
56307;SDS011;42217;50.422;7.210;2022-08-04T18:22:37;3.35;;;1.38;;
56307;SDS011;42217;50.422;7.210;2022-08-04T18:25:06;2.05;;;1.27;;
56307;SDS011;42217;50.422;7.210;2022-08-04T18:27:46;4.70;;;1.38;;
56307;SDS011;42217;50.422;7.210;2022-08-04T18:30:13;5.00;;;1.50;;
56307;SDS011;42217;50.422;7.210;2022-08-04T18:32:40;5.50;;;1.80;;
56307;SDS011;42217;50.422;7.210;2022-08-04T18:35:06;4.35;;;1.80;;
56307;SDS011;42217;50.422;7.210;2022-08-04T18:37:33;7.63;;;2.58;;
56307;SDS011;42217;50.422;7.210;2022-08-04T18:40:00;5.68;;;1.38;;
56307;SDS011;42217;50.422;7.210;2022-08-04T18:42:26;9.52;;;2.00;;
56307;SDS011;42217;50.422;7.210;2022-08-04T18:44:52;9.55;;;1.30;;
56307;SDS011;42217;50.422;7.210;2022-08-04T18:47:22;5.75;;;1.95;;
56307;SDS011;42217;50.422;7.210;2022-08-04T18:49:49;4.95;;;2.08;;
56307;SDS011;42217;50.422;7.210;2022-08-04T18:52:16;5.97;;;2.20;;
56307;SDS011;42217;50.422;7.210;2022-08-04T18:54:42;5.82;;;1.95;;
56307;SDS011;42217;50.422;7.210;2022-08-04T18:57:07;6.93;;;2.20;;
56307;SDS011;42217;50.422;7.210;2022-08-04T18:59:33;6.43;;;1.30;;
56307;SDS011;42217;50.422;7.210;2022-08-04T19:01:59;7.13;;;2.05;;
56307;SDS011;42217;50.422;7.210;2022-08-04T19:04:25;3.45;;;1.60;;
56307;SDS011;42217;50.422;7.210;2022-08-04T19:06:51;4.05;;;1.60;;
56307;SDS011;42217;50.422;7.210;2022-08-04T19:09:16;9.43;;;1.58;;
56307;SDS011;42217;50.422;7.210;2022-08-04T19:11:42;9.50;;;2.28;;
56307;SDS011;42217;50.422;7.210;2022-08-04T19:14:08;7.93;;;1.75;;
56307;SDS011;42217;50.422;7.210;2022-08-04T19:16:34;6.35;;;1.40;;
56307;SDS011;42217;50.422;7.210;2022-08-04T19:19:03;7.68;;;1.70;;
56307;SDS011;42217;50.422;7.210;2022-08-04T19:21:30;7.25;;;1.42;;
56307;SDS011;42217;50.422;7.210;2022-08-04T19:23:56;6.78;;;1.55;;
56307;SDS011;42217;50.422;7.210;2022-08-04T19:26:22;7.18;;;1.75;;
56307;SDS011;42217;50.422;7.210;2022-08-04T19:28:49;4.70;;;2.53;;
56307;SDS011;42217;50.422;7.210;2022-08-04T19:31:16;7.68;;;1.90;;
56307;SDS011;42217;50.422;7.210;2022-08-04T19:33:41;6.97;;;1.65;;
56307;SDS011;42217;50.422;7.210;2022-08-04T19:36:07;10.35;;;2.15;;
56307;SDS011;42217;50.422;7.210;2022-08-04T19:38:34;6.07;;;1.42;;
56307;SDS011;42217;50.422;7.210;2022-08-04T19:41:01;4.93;;;1.58;;
56307;SDS011;42217;50.422;7.210;2022-08-04T19:43:29;7.53;;;1.55;;
56307;SDS011;42217;50.422;7.210;2022-08-04T19:45:55;4.20;;;1.60;;
56307;SDS011;42217;50.422;7.210;2022-08-04T19:48:21;7.70;;;2.33;;
56307;SDS011;42217;50.422;7.210;2022-08-04T19:50:47;7.43;;;1.80;;
56307;SDS011;42217;50.422;7.210;2022-08-04T19:53:13;3.28;;;1.85;;
56307;SDS011;42217;50.422;7.210;2022-08-04T19:55:40;7.13;;;2.47;;
56307;SDS011;42217;50.422;7.210;2022-08-04T19:58:07;7.60;;;2.15;;